Time;durP1;ratioP1;P1;durP2;ratioP2;P2;SDS_P1;SDS_P2;PMS_P1;PMS_P2;Temp;Humidity;BMP_temperature;BMP_pressure;BME280_temperature;BME280_humidity;BME280_pressure;Samples;Min_cycle;Max_cycle;Signal;HPM_P1;HPM_P2
2023/06/01 00:01:50;;;;;;;0.10;0.10;;;;;;;;;;6198971;23;20091;-77
2023/06/01 00:04:17;;;;;;;0.10;0.10;;;;;;;;;;6199169;23;20355;-77
2023/06/01 00:06:43;;;;;;;2.47;0.93;;;;;;;;;;6199361;23;20250;-76
2023/06/01 00:09:09;;;;;;;0.20;0.20;;;;;;;;;;6199543;23;20452;-77
2023/06/01 00:11:35;;;;;;;0.75;0.75;;;;;;;;;;6200908;23;20048;-77
2023/06/01 00:14:01;;;;;;;0.10;0.10;;;;;;;;;;6198802;23;20017;-77
2023/06/01 00:16:28;;;;;;;0.20;0.20;;;;;;;;;;6199585;23;20016;-77
2023/06/01 00:18:56;;;;;;;0.10;0.10;;;;;;;;;;6199370;23;20020;-76
2023/06/01 00:21:22;;;;;;;8.68;1.85;;;;;;;;;;6198530;23;20021;-76
2023/06/01 00:23:49;;;;;;;0.30;0.30;;;;;;;;;;6198469;23;20020;-77
2023/06/01 00:26:15;;;;;;;0.10;0.10;;;;;;;;;;6200011;23;20531;-77
2023/06/01 00:28:41;;;;;;;0.32;0.32;;;;;;;;;;6199236;23;20021;-77
2023/06/01 00:31:08;;;;;;;0.35;0.35;;;;;;;;;;6198811;23;20017;-77
2023/06/01 00:33:34;;;;;;;0.10;0.10;;;;;;;;;;6198811;23;20016;-77
2023/06/01 00:36:00;;;;;;;0.05;0.05;;;;;;;;;;6197762;23;20021;-76
2023/06/01 00:38:26;;;;;;;0.10;0.10;;;;;;;;;;6227175;23;20020;-77
2023/06/01 00:40:52;;;;;;;0.10;0.10;;;;;;;;;;6203700;23;20087;-77
2023/06/01 00:43:18;;;;;;;0.10;0.10;;;;;;;;;;6202504;23;20443;-77
2023/06/01 00:45:45;;;;;;;0.10;0.10;;;;;;;;;;6203620;23;20024;-77
2023/06/01 00:48:11;;;;;;;0.13;0.13;;;;;;;;;;6203743;23;20061;-77
2023/06/01 00:50:37;;;;;;;0.30;0.30;;;;;;;;;;6203258;23;20027;-77
2023/06/01 00:53:05;;;;;;;0.25;0.25;;;;;;;;;;6204128;23;20026;-77
2023/06/01 00:55:31;;;;;;;0.10;0.10;;;;;;;;;;6203093;23;20024;-77
2023/06/01 00:57:58;;;;;;;0.43;0.43;;;;;;;;;;6230987;23;20571;-77
2023/06/01 01:00:27;;;;;;;0.10;0.10;;;;;;;;;;6204347;23;20394;-76
2023/06/01 01:02:53;;;;;;;0.65;0.65;;;;;;;;;;6203610;23;20352;-77
2023/06/01 01:05:19;;;;;;;0.30;0.30;;;;;;;;;;6203644;23;20321;-76
2023/06/01 01:08:04;;;;;;;0.10;0.10;;;;;;;;;;6203196;23;20016;-77
2023/06/01 01:10:40;;;;;;;1.02;0.95;;;;;;;;;;6203541;23;20192;-77
2023/06/01 01:13:35;;;;;;;0.10;0.10;;;;;;;;;;6203894;23;20074;-77
2023/06/01 01:16:08;;;;;;;0.10;0.10;;;;;;;;;;6097636;23;20021;-76
2023/06/01 01:18:37;;;;;;;0.10;0.10;;;;;;;;;;6203833;23;20027;-77
2023/06/01 01:21:21;;;;;;;0.10;0.10;;;;;;;;;;6202988;23;20047;-77
2023/06/01 01:24:06;;;;;;;0.13;0.13;;;;;;;;;;6202043;23;20454;-76
2023/06/01 01:26:32;;;;;;;0.10;0.10;;;;;;;;;;6202527;23;20028;-77
2023/06/01 01:29:06;;;;;;;0.10;0.10;;;;;;;;;;6203280;23;20034;-77
2023/06/01 01:31:32;;;;;;;;;;;;;;;;;;6229698;23;20071;-77
2023/06/01 01:33:59;;;;;;;0.30;0.30;;;;;;;;;;6203555;23;19915;-77
2023/06/01 01:36:25;;;;;;;0.10;0.10;;;;;;;;;;6202821;23;20352;-76
2023/06/01 01:38:51;;;;;;;0.10;0.10;;;;;;;;;;6203033;23;20348;-77
2023/06/01 01:41:17;;;;;;;0.10;0.10;;;;;;;;;;6202598;23;20119;-77
2023/06/01 01:43:44;;;;;;;0.10;0.10;;;;;;;;;;6203934;23;20020;-77
2023/06/01 01:46:23;;;;;;;0.20;0.20;;;;;;;;;;6178518;23;20016;-77
2023/06/01 01:48:52;;;;;;;0.10;0.10;;;;;;;;;;6203158;23;20024;-77
2023/06/01 01:51:21;;;;;;;0.10;0.10;;;;;;;;;;6202374;23;20604;-77
2023/06/01 01:53:49;;;;;;;0.10;0.10;;;;;;;;;;6203605;23;20454;-77
2023/06/01 01:56:15;;;;;;;0.17;0.17;;;;;;;;;;6231091;23;20015;-77
2023/06/01 01:58:42;;;;;;;0.10;0.10;;;;;;;;;;6203315;23;20469;-76
2023/06/01 02:01:09;;;;;;;0.10;0.10;;;;;;;;;;6202382;23;20488;-76
2023/06/01 02:03:35;;;;;;;0.20;0.20;;;;;;;;;;6203139;23;20055;-77
2023/06/01 02:06:01;;;;;;;0.10;0.10;;;;;;;;;;6201684;23;20087;-77
2023/06/01 02:08:27;;;;;;;0.15;0.15;;;;;;;;;;6203541;23;20020;-77
2023/06/01 02:10:53;;;;;;;0.32;0.32;;;;;;;;;;6229567;23;20024;-77
2023/06/01 02:13:19;;;;;;;0.10;0.10;;;;;;;;;;6178458;23;20152;-77
2023/06/01 02:15:45;;;;;;;0.50;0.50;;;;;;;;;;6203701;23;20460;-77
2023/06/01 02:18:11;;;;;;;0.10;0.10;;;;;;;;;;6203159;23;20047;-77
2023/06/01 02:20:37;;;;;;;0.10;0.10;;;;;;;;;;6202847;23;20054;-77
2023/06/01 02:23:03;;;;;;;0.10;0.10;;;;;;;;;;6229814;23;20343;-77
2023/06/01 02:25:29;;;;;;;0.10;0.10;;;;;;;;;;6203374;23;20044;-77
2023/06/01 02:27:55;;;;;;;0.10;0.10;;;;;;;;;;6203688;23;20046;-77
2023/06/01 02:30:21;;;;;;;0.10;0.10;;;;;;;;;;6203101;23;20020;-77
2023/06/01 02:32:48;;;;;;;0.10;0.10;;;;;;;;;;6230185;23;20019;-77
2023/06/01 02:35:14;;;;;;;0.10;0.10;;;;;;;;;;6202770;23;20099;-77
2023/06/01 02:37:40;;;;;;;0.10;0.10;;;;;;;;;;6202993;23;20716;-77
2023/06/01 02:40:11;;;;;;;0.80;0.80;;;;;;;;;;6203518;23;20016;-76
2023/06/01 02:42:38;;;;;;;0.10;0.10;;;;;;;;;;6203599;23;20023;-77
2023/06/01 02:45:04;;;;;;;0.25;0.25;;;;;;;;;;6177991;23;20015;-76
2023/06/01 02:47:30;;;;;;;0.10;0.10;;;;;;;;;;6202493;23;20024;-77
2023/06/01 02:49:56;;;;;;;0.10;0.10;;;;;;;;;;6201990;23;20394;-76
2023/06/01 02:52:22;;;;;;;0.10;0.10;;;;;;;;;;6202687;23;20479;-77
2023/06/01 02:54:48;;;;;;;0.10;0.10;;;;;;;;;;6202305;23;20102;-77
2023/06/01 02:57:14;;;;;;;0.10;0.10;;;;;;;;;;6202505;23;20026;-77
2023/06/01 02:59:41;;;;;;;0.10;0.10;;;;;;;;;;6228787;23;20581;-77
2023/06/01 03:02:07;;;;;;;0.10;0.10;;;;;;;;;;6201012;23;20022;-77
2023/06/01 03:04:33;;;;;;;0.10;0.10;;;;;;;;;;6229502;23;20020;-77
2023/06/01 03:07:01;;;;;;;0.20;0.20;;;;;;;;;;6229712;23;20055;-77
2023/06/01 03:09:27;;;;;;;0.20;0.20;;;;;;;;;;6230298;23;20012;-77
2023/06/01 03:11:53;;;;;;;0.10;0.10;;;;;;;;;;6229338;23;20027;-77
2023/06/01 03:14:19;;;;;;;0.10;0.10;;;;;;;;;;6201672;23;20091;-76
2023/06/01 03:16:45;;;;;;;0.10;0.10;;;;;;;;;;6203529;23;20093;-78
2023/06/01 03:19:11;;;;;;;0.30;0.30;;;;;;;;;;6205246;23;20462;-79
2023/06/01 03:21:37;;;;;;;0.10;0.10;;;;;;;;;;6202924;23;20531;-76
2023/06/01 03:24:03;;;;;;;0.17;0.17;;;;;;;;;;6203594;23;20028;-76
2023/06/01 03:26:29;;;;;;;0.20;0.20;;;;;;;;;;6231751;23;20052;-77
2023/06/01 03:28:55;;;;;;;0.10;0.10;;;;;;;;;;6204277;23;20497;-77
2023/06/01 03:31:22;;;;;;;0.10;0.10;;;;;;;;;;6203742;23;20531;-77
2023/06/01 03:33:48;;;;;;;0.10;0.10;;;;;;;;;;6204361;23;20016;-77
2023/06/01 03:36:14;;;;;;;0.10;0.10;;;;;;;;;;6231279;23;20016;-77
2023/06/01 03:38:41;;;;;;;0.10;0.10;;;;;;;;;;6231197;23;20418;-77
2023/06/01 03:41:07;;;;;;;0.10;0.10;;;;;;;;;;6204509;23;20058;-77
2023/06/01 03:43:33;;;;;;;0.10;0.10;;;;;;;;;;6202978;23;20020;-77
2023/06/01 03:45:59;;;;;;;0.10;0.10;;;;;;;;;;6204689;23;20062;-77
2023/06/01 03:48:25;;;;;;;0.10;0.10;;;;;;;;;;6204345;23;20020;-77
2023/06/01 03:50:52;;;;;;;0.10;0.10;;;;;;;;;;6230819;23;20042;-77
2023/06/01 03:53:18;;;;;;;0.10;0.10;;;;;;;;;;6203615;23;20023;-76
2023/06/01 03:55:44;;;;;;;0.00;0.00;;;;;;;;;;6204473;23;20028;-77
2023/06/01 03:58:10;;;;;;;0.10;0.10;;;;;;;;;;6203741;23;20087;-76
2023/06/01 04:00:37;;;;;;;0.10;0.10;;;;;;;;;;6204158;23;20027;-77
2023/06/01 04:03:06;;;;;;;0.10;0.10;;;;;;;;;;6203040;23;20023;-76
2023/06/01 04:05:32;;;;;;;0.30;0.30;;;;;;;;;;6203469;23;20055;-76
2023/06/01 04:07:58;;;;;;;0.10;0.10;;;;;;;;;;6204176;23;20024;-76
2023/06/01 04:10:25;;;;;;;0.10;0.10;;;;;;;;;;6231621;23;20361;-75
2023/06/01 04:12:51;;;;;;;0.22;0.22;;;;;;;;;;6204103;23;20032;-76
2023/06/01 04:15:19;;;;;;;0.10;0.10;;;;;;;;;;6204207;23;20047;-76
2023/06/01 04:17:45;;;;;;;0.10;0.10;;;;;;;;;;6231750;23;20073;-77
2023/06/01 04:20:16;;;;;;;0.17;0.17;;;;;;;;;;6178653;23;20019;-76
2023/06/01 04:22:42;;;;;;;0.10;0.10;;;;;;;;;;6232029;23;20024;-76
2023/06/01 04:25:11;;;;;;;0.10;0.10;;;;;;;;;;6230310;23;20031;-76
2023/06/01 04:27:37;;;;;;;0.43;0.43;;;;;;;;;;6203978;23;20031;-76
2023/06/01 04:30:10;;;;;;;0.10;0.10;;;;;;;;;;6203416;23;20066;-76
2023/06/01 04:32:37;;;;;;;0.10;0.10;;;;;;;;;;6229075;23;20379;-76
2023/06/01 04:35:05;;;;;;;0.10;0.10;;;;;;;;;;6229396;23;20020;-77
2023/06/01 04:37:34;;;;;;;0.10;0.10;;;;;;;;;;6230812;23;20482;-76
2023/06/01 04:40:00;;;;;;;0.10;0.10;;;;;;;;;;6203029;23;20551;-77
2023/06/01 04:42:27;;;;;;;0.10;0.10;;;;;;;;;;6203428;23;20020;-77
2023/06/01 04:44:53;;;;;;;0.10;0.10;;;;;;;;;;6203255;23;20515;-77
2023/06/01 04:47:21;;;;;;;4.18;1.65;;;;;;;;;;6203811;23;20024;-78
2023/06/01 04:49:47;;;;;;;0.32;0.32;;;;;;;;;;6203995;23;20035;-77
2023/06/01 04:52:14;;;;;;;0.75;0.75;;;;;;;;;;6230107;23;20327;-77
2023/06/01 04:54:40;;;;;;;0.10;0.10;;;;;;;;;;6203013;23;20065;-77
2023/06/01 04:57:06;;;;;;;0.10;0.10;;;;;;;;;;6230514;23;20039;-77
2023/06/01 04:59:32;;;;;;;0.10;0.10;;;;;;;;;;6230679;23;20107;-77
2023/06/01 05:01:59;;;;;;;0.10;0.10;;;;;;;;;;6201166;23;20146;-78
2023/06/01 05:04:25;;;;;;;0.38;0.38;;;;;;;;;;6203383;23;20045;-77
2023/06/01 05:06:52;;;;;;;0.10;0.10;;;;;;;;;;6201961;23;20024;-79
2023/06/01 05:09:18;;;;;;;0.10;0.10;;;;;;;;;;6178131;23;20406;-78
2023/06/01 05:11:44;;;;;;;0.10;0.10;;;;;;;;;;6203029;23;20019;-75
2023/06/01 05:14:10;;;;;;;1.30;1.20;;;;;;;;;;6177782;23;20419;-79
2023/06/01 05:16:36;;;;;;;0.20;0.20;;;;;;;;;;6203138;23;20533;-78
2023/06/01 05:19:03;;;;;;;0.10;0.10;;;;;;;;;;6229263;23;20066;-80
2023/06/01 05:21:31;;;;;;;0.10;0.10;;;;;;;;;;6202260;23;20395;-77
2023/06/01 05:23:57;;;;;;;0.10;0.10;;;;;;;;;;6202225;23;20020;-76
2023/06/01 05:26:24;;;;;;;0.10;0.10;;;;;;;;;;6203093;23;20095;-76
2023/06/01 05:28:50;;;;;;;0.20;0.20;;;;;;;;;;6203423;23;20427;-76
2023/06/01 05:31:16;;;;;;;0.10;0.10;;;;;;;;;;6203932;23;20020;-76
2023/06/01 05:33:42;;;;;;;0.10;0.10;;;;;;;;;;6229801;23;20369;-76
2023/06/01 05:36:09;;;;;;;0.10;0.10;;;;;;;;;;6202988;23;20101;-76
2023/06/01 05:38:36;;;;;;;0.40;0.40;;;;;;;;;;6203248;23;20028;-76
2023/06/01 05:41:02;;;;;;;0.10;0.10;;;;;;;;;;6203169;23;20028;-76
2023/06/01 05:43:29;;;;;;;0.90;0.90;;;;;;;;;;6201747;23;20027;-76
2023/06/01 05:45:55;;;;;;;0.10;0.10;;;;;;;;;;6203028;23;20020;-76
2023/06/01 05:48:21;;;;;;;0.10;0.10;;;;;;;;;;6202888;23;20379;-76
2023/06/01 05:50:47;;;;;;;0.10;0.10;;;;;;;;;;6203601;23;20020;-76
2023/06/01 05:53:13;;;;;;;0.20;0.20;;;;;;;;;;6203494;23;20020;-76
2023/06/01 05:55:40;;;;;;;0.10;0.10;;;;;;;;;;6202316;23;20020;-76
2023/06/01 05:58:06;;;;;;;0.20;0.20;;;;;;;;;;6202160;23;20042;-76
2023/06/01 06:00:35;;;;;;;0.10;0.10;;;;;;;;;;6204081;23;20020;-76
2023/06/01 06:03:01;;;;;;;0.10;0.10;;;;;;;;;;6177176;23;20016;-76
2023/06/01 06:05:27;;;;;;;0.10;0.10;;;;;;;;;;6229035;23;20019;-76
2023/06/01 06:07:53;;;;;;;0.10;0.10;;;;;;;;;;6230802;23;20089;-76
2023/06/01 06:10:19;;;;;;;0.15;0.15;;;;;;;;;;6230032;23;20346;-76
2023/06/01 06:12:45;;;;;;;0.20;0.20;;;;;;;;;;6230572;23;20142;-76
2023/06/01 06:15:11;;;;;;;0.20;0.20;;;;;;;;;;6203034;23;20024;-76
2023/06/01 06:17:37;;;;;;;0.20;0.20;;;;;;;;;;6203351;23;20020;-75
2023/06/01 06:20:07;;;;;;;0.10;0.10;;;;;;;;;;6177957;23;20038;-76
2023/06/01 06:22:33;;;;;;;0.13;0.13;;;;;;;;;;6203302;23;20458;-76
2023/06/01 06:24:59;;;;;;;0.10;0.10;;;;;;;;;;6203479;23;20020;-76
2023/06/01 06:27:26;;;;;;;0.10;0.10;;;;;;;;;;6202735;23;20016;-76
2023/06/01 06:29:52;;;;;;;0.10;0.10;;;;;;;;;;6203845;23;20391;-76
2023/06/01 06:32:19;;;;;;;0.10;0.10;;;;;;;;;;6201933;23;20399;-76
2023/06/01 06:34:46;;;;;;;0.10;0.10;;;;;;;;;;6202957;23;20466;-76
2023/06/01 06:37:12;;;;;;;0.10;0.10;;;;;;;;;;6230040;23;20184;-76
2023/06/01 06:39:38;;;;;;;0.10;0.10;;;;;;;;;;6177638;23;20035;-76
2023/06/01 06:42:05;;;;;;;0.10;0.10;;;;;;;;;;6229016;23;20078;-76
2023/06/01 06:44:31;;;;;;;0.10;0.10;;;;;;;;;;6201866;23;20123;-76
2023/06/01 06:47:00;;;;;;;0.90;0.90;;;;;;;;;;6202168;23;20074;-76
2023/06/01 06:49:26;;;;;;;0.00;0.00;;;;;;;;;;6202744;23;20630;-76
2023/06/01 06:51:52;;;;;;;0.00;0.00;;;;;;;;;;6204820;23;20534;-76
2023/06/01 06:54:18;;;;;;;0.10;0.10;;;;;;;;;;6231496;23;20503;-76
2023/06/01 06:56:45;;;;;;;0.10;0.10;;;;;;;;;;6204840;23;20055;-76
2023/06/01 06:59:11;;;;;;;0.10;0.10;;;;;;;;;;6204580;23;20063;-75
2023/06/01 07:01:37;;;;;;;0.10;0.10;;;;;;;;;;6231763;23;20302;-76
2023/06/01 07:04:08;;;;;;;0.10;0.10;;;;;;;;;;6232224;23;20047;-76
2023/06/01 07:06:34;;;;;;;0.10;0.10;;;;;;;;;;6231997;23;20024;-76
2023/06/01 07:09:00;;;;;;;0.10;0.10;;;;;;;;;;6231705;23;20012;-76
2023/06/01 07:11:27;;;;;;;0.10;0.10;;;;;;;;;;6204981;23;20016;-76
2023/06/01 07:13:53;;;;;;;0.10;0.10;;;;;;;;;;6231179;23;20783;-75
2023/06/01 07:16:20;;;;;;;0.10;0.10;;;;;;;;;;6205197;23;20082;-76
2023/06/01 07:18:46;;;;;;;0.10;0.10;;;;;;;;;;6232252;23;20031;-76
2023/06/01 07:21:12;;;;;;;0.10;0.10;;;;;;;;;;6204865;23;20020;-76
2023/06/01 07:23:38;;;;;;;0.10;0.10;;;;;;;;;;6204789;23;20358;-76
2023/06/01 07:26:04;;;;;;;0.10;0.10;;;;;;;;;;6230502;23;20101;-76
2023/06/01 07:28:30;;;;;;;0.20;0.20;;;;;;;;;;6204547;23;20453;-75
2023/06/01 07:30:56;;;;;;;0.10;0.10;;;;;;;;;;6204229;23;20579;-76
2023/06/01 07:33:22;;;;;;;0.10;0.10;;;;;;;;;;6204756;23;20382;-76
2023/06/01 07:35:52;;;;;;;0.10;0.10;;;;;;;;;;6200774;23;20016;-78
2023/06/01 07:38:19;;;;;;;0.10;0.10;;;;;;;;;;6203340;23;20091;-77
2023/06/01 07:40:45;;;;;;;0.10;0.10;;;;;;;;;;6203841;23;20456;-76
2023/06/01 07:43:12;;;;;;;0.10;0.10;;;;;;;;;;6203728;23;20020;-76
2023/06/01 07:45:40;;;;;;;0.10;0.10;;;;;;;;;;6230602;23;20098;-75
2023/06/01 07:48:06;;;;;;;0.15;0.15;;;;;;;;;;6178124;23;20020;-76
2023/06/01 07:50:32;;;;;;;0.10;0.10;;;;;;;;;;6204241;23;20023;-77
2023/06/01 07:52:59;;;;;;;0.10;0.10;;;;;;;;;;6231920;23;20082;-76
2023/06/01 07:55:25;;;;;;;0.10;0.10;;;;;;;;;;6204091;23;20030;-75
2023/06/01 07:57:52;;;;;;;0.10;0.10;;;;;;;;;;6203689;23;20329;-75
2023/06/01 08:00:19;;;;;;;0.10;0.10;;;;;;;;;;6203014;23;20031;-76
2023/06/01 08:02:45;;;;;;;0.10;0.10;;;;;;;;;;6179380;23;20051;-76
2023/06/01 08:05:11;;;;;;;0.10;0.10;;;;;;;;;;6204084;23;20482;-77
2023/06/01 08:07:38;;;;;;;0.00;0.00;;;;;;;;;;6204151;23;20043;-76
2023/06/01 08:10:10;;;;;;;0.10;0.10;;;;;;;;;;6230615;23;20012;-76
2023/06/01 08:12:36;;;;;;;0.10;0.10;;;;;;;;;;6203994;23;20056;-76
2023/06/01 08:15:03;;;;;;;0.10;0.10;;;;;;;;;;6204189;23;20056;-76
2023/06/01 08:17:30;;;;;;;0.10;0.10;;;;;;;;;;6231554;23;20015;-75
2023/06/01 08:19:56;;;;;;;0.10;0.10;;;;;;;;;;6204648;23;20020;-76
2023/06/01 08:22:27;;;;;;;2.92;1.10;;;;;;;;;;6204042;23;20711;-76
2023/06/01 08:24:53;;;;;;;0.10;0.10;;;;;;;;;;6203800;23;20099;-75
2023/06/01 08:27:20;;;;;;;0.10;0.10;;;;;;;;;;6231621;23;20027;-75
2023/06/01 08:29:49;;;;;;;0.10;0.10;;;;;;;;;;6203523;23;20721;-75
2023/06/01 08:32:16;;;;;;;0.10;0.10;;;;;;;;;;6203507;23;20031;-76
2023/06/01 08:34:44;;;;;;;0.10;0.10;;;;;;;;;;6204046;23;20109;-76
2023/06/01 08:37:10;;;;;;;0.10;0.10;;;;;;;;;;6204024;23;20020;-75
2023/06/01 08:39:37;;;;;;;0.10;0.10;;;;;;;;;;6230609;23;20502;-76
2023/06/01 08:42:38;;;;;;;0.10;0.10;;;;;;;;;;6205526;23;20031;-76
2023/06/01 08:45:06;;;;;;;0.20;0.20;;;;;;;;;;6083815;23;20541;-75
2023/06/01 08:47:32;;;;;;;0.10;0.10;;;;;;;;;;6179470;23;20028;-75
2023/06/01 08:50:01;;;;;;;0.20;0.20;;;;;;;;;;6202942;23;20020;-78
2023/06/01 08:52:31;;;;;;;0.10;0.10;;;;;;;;;;6178947;23;20020;-78
2023/06/01 08:55:01;;;;;;;0.10;0.10;;;;;;;;;;6203670;23;20024;-77
2023/06/01 08:57:31;;;;;;;0.10;0.10;;;;;;;;;;6204195;23;20054;-77
2023/06/01 08:59:58;;;;;;;0.20;0.20;;;;;;;;;;6203340;23;20062;-77
2023/06/01 09:02:25;;;;;;;0.40;0.40;;;;;;;;;;6202135;23;20028;-77
2023/06/01 09:04:52;;;;;;;0.10;0.10;;;;;;;;;;6204006;23;20421;-76
2023/06/01 09:07:18;;;;;;;0.10;0.10;;;;;;;;;;6203262;23;20023;-78
2023/06/01 09:09:45;;;;;;;0.10;0.10;;;;;;;;;;6203554;23;20021;-77
2023/06/01 09:12:18;;;;;;;0.93;0.90;;;;;;;;;;6203508;23;20062;-77
2023/06/01 09:14:44;;;;;;;0.00;0.00;;;;;;;;;;6202830;23;20027;-77
2023/06/01 09:17:15;;;;;;;0.10;0.10;;;;;;;;;;6178015;23;20015;-77
2023/06/01 09:19:44;;;;;;;0.10;0.10;;;;;;;;;;6203641;23;20458;-78
2023/06/01 09:22:12;;;;;;;0.10;0.10;;;;;;;;;;6202184;23;20020;-76
2023/06/01 09:24:38;;;;;;;0.10;0.10;;;;;;;;;;6203069;23;20027;-77
2023/06/01 09:27:04;;;;;;;0.10;0.10;;;;;;;;;;6202629;23;20086;-76
2023/06/01 09:29:31;;;;;;;0.85;0.85;;;;;;;;;;6202644;23;20063;-77
2023/06/01 09:31:57;;;;;;;0.10;0.10;;;;;;;;;;6202963;23;20020;-77
2023/06/01 09:34:23;;;;;;;0.10;0.10;;;;;;;;;;6202775;23;20110;-78
2023/06/01 09:36:53;;;;;;;0.10;0.10;;;;;;;;;;6202537;23;20020;-79
2023/06/01 09:39:20;;;;;;;0.40;0.40;;;;;;;;;;6202777;23;20023;-78
2023/06/01 09:41:58;;;;;;;0.30;0.30;;;;;;;;;;6202556;23;20023;-77
2023/06/01 09:44:27;;;;;;;0.20;0.20;;;;;;;;;;6202964;23;20020;-77
2023/06/01 09:46:55;;;;;;;0.10;0.10;;;;;;;;;;6230110;23;20038;-77
2023/06/01 09:49:24;;;;;;;0.10;0.10;;;;;;;;;;6202235;23;20343;-77
2023/06/01 09:51:51;;;;;;;0.10;0.10;;;;;;;;;;6202719;23;20062;-77
2023/06/01 09:54:26;;;;;;;0.43;0.43;;;;;;;;;;6202709;23;20047;-77
2023/06/01 09:56:53;;;;;;;0.10;0.10;;;;;;;;;;6203996;23;20059;-78
2023/06/01 09:59:21;;;;;;;0.25;0.25;;;;;;;;;;6229892;23;20016;-77
2023/06/01 10:01:50;;;;;;;0.10;0.10;;;;;;;;;;6228716;23;20030;-77
2023/06/01 10:04:18;;;;;;;0.10;0.10;;;;;;;;;;6229030;23;20328;-78
2023/06/01 10:06:44;;;;;;;0.10;0.10;;;;;;;;;;6203240;23;20054;-78
2023/06/01 10:09:18;;;;;;;0.10;0.10;;;;;;;;;;6203056;23;20020;-78
2023/06/01 10:11:44;;;;;;;0.43;0.40;;;;;;;;;;6203378;23;20495;-78
2023/06/01 10:14:11;;;;;;;0.10;0.10;;;;;;;;;;6202106;23;20048;-78
2023/06/01 10:16:37;;;;;;;0.10;0.10;;;;;;;;;;6203167;23;20030;-79
2023/06/01 10:19:03;;;;;;;0.13;0.13;;;;;;;;;;6203397;23;20570;-79
2023/06/01 10:21:32;;;;;;;0.10;0.10;;;;;;;;;;6201801;23;20525;-79
2023/06/01 10:23:58;;;;;;;0.10;0.10;;;;;;;;;;6203003;23;20051;-78
2023/06/01 10:26:26;;;;;;;5.25;2.38;;;;;;;;;;6204418;23;20485;-79
2023/06/01 10:28:53;;;;;;;0.00;0.00;;;;;;;;;;6205526;23;20023;-79
2023/06/01 10:31:35;;;;;;;0.75;0.73;;;;;;;;;;6205296;23;20012;-77
2023/06/01 10:34:02;;;;;;;0.10;0.10;;;;;;;;;;6203631;23;20044;-75
2023/06/01 10:36:47;;;;;;;0.10;0.10;;;;;;;;;;6205016;23;20319;-77
2023/06/01 10:39:42;;;;;;;0.10;0.10;;;;;;;;;;6231879;23;20117;-77
2023/06/01 10:42:14;;;;;;;0.10;0.10;;;;;;;;;;6179099;23;20095;-77
2023/06/01 10:44:40;;;;;;;0.10;0.10;;;;;;;;;;6204676;23;20802;-77
2023/06/01 10:47:06;;;;;;;0.10;0.10;;;;;;;;;;6232556;23;20011;-74
2023/06/01 10:50:00;;;;;;;0.00;0.00;;;;;;;;;;6204572;23;20026;-75
2023/06/01 10:52:38;;;;;;;0.10;0.10;;;;;;;;;;6160070;23;20024;-76
2023/06/01 10:55:07;;;;;;;0.10;0.10;;;;;;;;;;6203620;23;20523;-74
2023/06/01 10:57:34;;;;;;;0.10;0.10;;;;;;;;;;6204239;23;20023;-75
2023/06/01 11:00:16;;;;;;;0.10;0.10;;;;;;;;;;6203275;23;20027;-74
2023/06/01 11:03:01;;;;;;;5.85;1.98;;;;;;;;;;6205064;23;20352;-74
2023/06/01 11:05:39;;;;;;;0.10;0.10;;;;;;;;;;6205162;23;20070;-74
2023/06/01 11:08:06;;;;;;;0.10;0.10;;;;;;;;;;6204903;23;20016;-74
2023/06/01 11:10:54;;;;;;;0.10;0.10;;;;;;;;;;6205203;23;20351;-74
2023/06/01 11:13:21;;;;;;;0.10;0.10;;;;;;;;;;6204858;23;20518;-74
2023/06/01 11:16:22;;;;;;;0.10;0.10;;;;;;;;;;6204960;23;20060;-74
2023/06/01 11:18:49;;;;;;;0.10;0.10;;;;;;;;;;6204906;23;20016;-74
2023/06/01 11:21:17;;;;;;;48.17;1.65;;;;;;;;;;6205019;23;20051;-74
2023/06/01 11:23:44;;;;;;;0.10;0.10;;;;;;;;;;6231857;23;20123;-74
2023/06/01 11:26:13;;;;;;;0.10;0.10;;;;;;;;;;6204731;23;20026;-74
2023/06/01 11:28:40;;;;;;;0.10;0.10;;;;;;;;;;6204867;23;20070;-74
2023/06/01 11:31:09;;;;;;;0.10;0.10;;;;;;;;;;6205047;23;20020;-74
2023/06/01 11:33:38;;;;;;;0.13;0.13;;;;;;;;;;6204583;23;20356;-74
2023/06/01 11:36:05;;;;;;;0.10;0.10;;;;;;;;;;6204408;23;20023;-74
2023/06/01 11:38:35;;;;;;;0.10;0.10;;;;;;;;;;6204881;23;20028;-74
2023/06/01 11:41:02;;;;;;;0.10;0.10;;;;;;;;;;6232018;23;20027;-74
2023/06/01 11:43:29;;;;;;;0.10;0.10;;;;;;;;;;6204864;23;20019;-74
2023/06/01 11:46:02;;;;;;;0.10;0.10;;;;;;;;;;6231326;23;20035;-74
2023/06/01 11:48:28;;;;;;;0.10;0.10;;;;;;;;;;6231629;23;20526;-74
2023/06/01 11:50:54;;;;;;;0.10;0.10;;;;;;;;;;6179853;23;20427;-74
2023/06/01 11:53:21;;;;;;;0.20;0.20;;;;;;;;;;6205156;23;20024;-74
2023/06/01 11:55:51;;;;;;;0.10;0.10;;;;;;;;;;6204653;23;20020;-74
2023/06/01 11:58:26;;;;;;;0.10;0.10;;;;;;;;;;6205136;23;20087;-74
2023/06/01 12:00:53;;;;;;;0.10;0.10;;;;;;;;;;6204547;23;20507;-74
2023/06/01 12:03:19;;;;;;;0.10;0.10;;;;;;;;;;6231181;23;20020;-74
2023/06/01 12:05:45;;;;;;;0.10;0.10;;;;;;;;;;6204551;23;20020;-74
2023/06/01 12:08:20;;;;;;;0.20;0.20;;;;;;;;;;6231068;23;20446;-74
2023/06/01 12:10:47;;;;;;;0.10;0.10;;;;;;;;;;6179809;23;20020;-74
2023/06/01 12:13:14;;;;;;;0.35;0.32;;;;;;;;;;6204529;23;20031;-74
2023/06/01 12:15:40;;;;;;;0.10;0.10;;;;;;;;;;6204378;23;20020;-74
2023/06/01 12:18:06;;;;;;;0.10;0.10;;;;;;;;;;6231226;23;20028;-74
2023/06/01 12:20:37;;;;;;;0.20;0.20;;;;;;;;;;6204782;23;20443;-74
2023/06/01 12:23:14;;;;;;;1.17;1.00;;;;;;;;;;6204279;23;20024;-74
2023/06/01 12:25:50;;;;;;;0.10;0.10;;;;;;;;;;6204665;23;20467;-74
2023/06/01 12:28:20;;;;;;;0.10;0.10;;;;;;;;;;6204494;23;20459;-74
2023/06/01 12:30:47;;;;;;;0.10;0.10;;;;;;;;;;6203447;23;20039;-74
2023/06/01 12:33:35;;;;;;;0.10;0.10;;;;;;;;;;6231026;23;20456;-74
2023/06/01 12:36:03;;;;;;;0.10;0.10;;;;;;;;;;6204807;23;20276;-75
2023/06/01 12:38:34;;;;;;;0.10;0.10;;;;;;;;;;6204104;23;20060;-74
2023/06/01 12:41:08;;;;;;;0.10;0.10;;;;;;;;;;6204489;23;20024;-74
2023/06/01 12:43:35;;;;;;;0.10;0.10;;;;;;;;;;6204425;23;20388;-74
2023/06/01 12:46:01;;;;;;;0.10;0.10;;;;;;;;;;6230782;23;20020;-75
2023/06/01 12:48:34;;;;;;;0.10;0.10;;;;;;;;;;6203825;23;20019;-75
2023/06/01 12:51:00;;;;;;;0.10;0.10;;;;;;;;;;6204348;23;20162;-75
2023/06/01 12:53:27;;;;;;;0.10;0.10;;;;;;;;;;6203766;23;20016;-74
2023/06/01 12:55:53;;;;;;;0.10;0.10;;;;;;;;;;6231196;23;20066;-74
2023/06/01 12:58:19;;;;;;;0.80;0.80;;;;;;;;;;6204014;23;20027;-74
2023/06/01 13:00:46;;;;;;;0.10;0.10;;;;;;;;;;6204727;23;20058;-74
2023/06/01 13:03:13;;;;;;;0.20;0.20;;;;;;;;;;6204328;23;20020;-74
2023/06/01 13:05:42;;;;;;;0.10;0.10;;;;;;;;;;6204119;23;20747;-74
2023/06/01 13:08:08;;;;;;;0.10;0.10;;;;;;;;;;6203576;23;20078;-73
2023/06/01 13:10:34;;;;;;;0.10;0.10;;;;;;;;;;6230512;23;20016;-74
2023/06/01 13:13:00;;;;;;;0.10;0.10;;;;;;;;;;6203871;23;20048;-74
2023/06/01 13:15:26;;;;;;;0.10;0.10;;;;;;;;;;6204201;23;20078;-74
2023/06/01 13:17:55;;;;;;;0.10;0.10;;;;;;;;;;6203713;23;20020;-74
2023/06/01 13:20:21;;;;;;;0.30;0.30;;;;;;;;;;6204309;23;20020;-75
2023/06/01 13:22:47;;;;;;;0.10;0.10;;;;;;;;;;6202779;23;20325;-74
2023/06/01 13:25:14;;;;;;;0.10;0.10;;;;;;;;;;6204200;23;20094;-74
2023/06/01 13:27:40;;;;;;;0.10;0.10;;;;;;;;;;6204228;23;20031;-74
2023/06/01 13:30:07;;;;;;;0.10;0.10;;;;;;;;;;6230514;23;20332;-74
2023/06/01 13:32:34;;;;;;;0.10;0.10;;;;;;;;;;6230935;23;20024;-74
2023/06/01 13:35:00;;;;;;;0.10;0.10;;;;;;;;;;6203977;23;20113;-74
2023/06/01 13:37:26;;;;;;;0.10;0.10;;;;;;;;;;6230296;23;20459;-74
2023/06/01 13:39:52;;;;;;;0.17;0.17;;;;;;;;;;6203754;23;20239;-74
2023/06/01 13:42:18;;;;;;;0.00;0.00;;;;;;;;;;6203709;23;20027;-76
2023/06/01 13:44:46;;;;;;;0.00;0.00;;;;;;;;;;6203099;23;20030;-74
2023/06/01 13:47:15;;;;;;;0.10;0.10;;;;;;;;;;6203602;23;20031;-74
2023/06/01 13:49:42;;;;;;;0.10;0.10;;;;;;;;;;6203631;23;20587;-74
2023/06/01 13:52:08;;;;;;;0.75;0.30;;;;;;;;;;6203397;23;20024;-74
2023/06/01 13:54:35;;;;;;;0.00;0.00;;;;;;;;;;6203729;23;20462;-74
2023/06/01 13:57:02;;;;;;;0.00;0.00;;;;;;;;;;6203120;23;20020;-74
2023/06/01 13:59:30;;;;;;;0.65;0.65;;;;;;;;;;6202490;23;20023;-74
2023/06/01 14:01:56;;;;;;;0.10;0.10;;;;;;;;;;6203056;23;20411;-74
2023/06/01 14:04:22;;;;;;;0.10;0.10;;;;;;;;;;6178220;23;20019;-74
2023/06/01 14:06:51;;;;;;;0.10;0.10;;;;;;;;;;6203548;23;20348;-74
2023/06/01 14:09:18;;;;;;;0.20;0.20;;;;;;;;;;6229855;23;20491;-74
2023/06/01 14:11:44;;;;;;;0.20;0.20;;;;;;;;;;6230099;23;20039;-74
2023/06/01 14:14:10;;;;;;;0.10;0.10;;;;;;;;;;6178565;23;20024;-74
2023/06/01 14:16:36;;;;;;;0.10;0.10;;;;;;;;;;6230732;23;20012;-74
2023/06/01 14:19:03;;;;;;;0.10;0.10;;;;;;;;;;6203593;23;20039;-75
2023/06/01 14:21:30;;;;;;;0.10;0.10;;;;;;;;;;6203024;23;20086;-74
2023/06/01 14:23:57;;;;;;;0.10;0.10;;;;;;;;;;6202994;23;20024;-74
2023/06/01 14:26:23;;;;;;;0.93;0.93;;;;;;;;;;6203133;23;20465;-75
2023/06/01 14:28:49;;;;;;;0.10;0.10;;;;;;;;;;6178332;23;20020;-74
2023/06/01 14:31:15;;;;;;;1.20;1.05;;;;;;;;;;6230150;23;20023;-74
2023/06/01 14:33:41;;;;;;;0.10;0.10;;;;;;;;;;6230157;23;20023;-74
2023/06/01 14:36:07;;;;;;;0.10;0.10;;;;;;;;;;6229970;23;20020;-75
2023/06/01 14:38:34;;;;;;;0.00;0.00;;;;;;;;;;6203394;23;20036;-75
2023/06/01 14:41:00;;;;;;;0.10;0.10;;;;;;;;;;6203557;23;20034;-74
2023/06/01 14:43:26;;;;;;;0.10;0.10;;;;;;;;;;6203069;23;20016;-74
2023/06/01 14:45:52;;;;;;;0.10;0.10;;;;;;;;;;6203420;23;20094;-75
2023/06/01 14:48:18;;;;;;;0.10;0.10;;;;;;;;;;6203411;23;20070;-74